Paramount Hamilton — 2CWB2 — position and weather

sailwx.info

Track history (hours):
 
Tides and Currents Weather Stations Pressure Air Temp Water Temp Dewpoint Dewpoint Depression Visibility Wind Speed Wind Dir Waves Ship Positions

Paramount Hamilton

Last reported at 2017-Dec-10 16:01 UTC. Time now 2017-Dec-12 22:00 UTC.
Position N 29°60' W 093°56'.

Length 249 m; draft 11 m.

Type: Ship (hazmat cat A). MMSI: 235076274.

Date/timePositionNaut miles runAvg speedWind from/ knotsBaromVisibWave heightAir tempDewpointWater temp
2017-Dec-10 16:01N 29°60' W 093°56'0 0.0
2017-Dec-10 15:49N 29°60' W 093°56'0 0.0
2017-Dec-10 15:28N 29°60' W 093°56'0 0.0
2017-Dec-10 14:58N 29°60' W 093°56'0 0.0
2017-Dec-10 14:28N 29°60' W 093°56'0 0.0
2017-Dec-10 13:55N 29°60' W 093°56'0 0.0
2017-Dec-10 13:28N 29°60' W 093°56'0 0.0
2017-Dec-10 12:58N 29°60' W 093°56'0 0.0
2017-Dec-10 12:28N 29°60' W 093°56'0 0.0
2017-Dec-10 11:58N 29°60' W 093°56'0 0.0
2017-Dec-10 11:28N 29°60' W 093°56'0 0.0
2017-Dec-10 10:46N 29°60' W 093°56'0 0.0
2017-Dec-10 10:25N 29°60' W 093°56'0 0.0
2017-Dec-10 08:01N 29°60' W 093°56'0 0.0
2017-Dec-10 07:49N 29°60' W 093°56'0 0.0
2017-Dec-10 07:25N 29°60' W 093°56'9 0.6
2017-Dec-09 15:55N 29°51' W 093°57'3 6.2
2017-Dec-09 15:22N 29°47' W 093°57'2 6.7
2017-Dec-09 15:00N 29°46' W 093°55'7 7.9
2017-Dec-09 14:09N 29°41' W 093°50'1 9.1
2017-Dec-09 14:00N 29°39' W 093°50'  
2017-Dec-03 08:58N 28°44' W 094°23'712.3
2017-Dec-03 08:25N 28°51' W 094°25'512.5
2017-Dec-03 08:00N 28°56' W 094°26'612.2
2017-Dec-03 07:30N 29°02' W 094°26'612.0
2017-Dec-03 07:00N 29°08' W 094°27'611.8
2017-Dec-03 06:30N 29°12' W 094°31'611.7
2017-Dec-03 06:00N 29°16' W 094°36'5 9.9
2017-Dec-03 05:30N 29°20' W 094°40'3 6.9
2017-Dec-03 05:00N 29°21' W 094°44'0 0.1
2017-Dec-03 04:30N 29°21' W 094°44'0 0.0
2017-Dec-03 03:57N 29°21' W 094°44'0 0.0
2017-Dec-03 03:30N 29°21' W 094°44'0 0.0
2017-Dec-03 03:00N 29°21' W 094°44'0 0.0
2017-Dec-03 00:51N 29°21' W 094°44'0 0.0
2017-Dec-02 18:45N 29°21' W 094°44'3 8.0
2017-Dec-02 18:24N 29°21' W 094°47'411.2
2017-Dec-02 18:00N 29°25' W 094°50'611.6
2017-Dec-02 17:30N 29°30' W 094°52'611.0
2017-Dec-02 17:00N 29°35' W 094°56'510.6
2017-Dec-02 16:30N 29°39' W 094°58'4 8.7
2017-Dec-02 16:00N 29°43' W 095°01'3 6.7
2017-Dec-02 15:30N 29°45' W 095°04'1 2.9
2017-Dec-02 15:00N 29°45' W 095°06'0 0.0
2017-Dec-02 14:30N 29°45' W 095°06'0 0.0
2017-Dec-02 14:00N 29°45' W 095°06'0 0.0
2017-Dec-02 13:30N 29°45' W 095°06'0 0.0
2017-Dec-02 13:00N 29°45' W 095°06'0 0.0
2017-Dec-02 12:30N 29°45' W 095°06'0 0.0
2017-Dec-02 12:00N 29°45' W 095°06'0 0.0
2017-Dec-02 11:30N 29°45' W 095°06'0 0.0
2017-Dec-02 10:54N 29°45' W 095°06'0 0.0
2017-Dec-02 10:27N 29°45' W 095°06'0 0.0
2017-Dec-02 10:00N 29°45' W 095°06'0 0.0
2017-Dec-02 09:24N 29°45' W 095°06'0 0.0
2017-Dec-02 09:00N 29°45' W 095°06'0 0.0
2017-Dec-02 08:27N 29°45' W 095°06'0 0.0
2017-Dec-02 08:00N 29°45' W 095°06'0 0.0
2017-Dec-02 07:24N 29°45' W 095°06'0 0.0
2017-Dec-02 07:00N 29°45' W 095°06'0 0.0
2017-Dec-02 06:30N 29°45' W 095°06'0 0.0
2017-Dec-02 06:00N 29°45' W 095°06'0 0.0
2017-Dec-02 05:24N 29°45' W 095°06'0 0.0
2017-Dec-02 05:00N 29°45' W 095°06'0 0.0
2017-Dec-02 04:30N 29°45' W 095°06'0 0.0
2017-Dec-02 04:00N 29°45' W 095°06'0 0.0
2017-Dec-02 03:27N 29°45' W 095°06'0 0.0
2017-Dec-02 02:54N 29°45' W 095°06'0 0.0
2017-Dec-02 02:12N 29°45' W 095°06'0 0.1
2017-Dec-02 02:00N 29°45' W 095°06'0 0.0
2017-Dec-02 01:30N 29°45' W 095°06'0 0.0
2017-Dec-02 01:00N 29°45' W 095°06'0 0.0
2017-Dec-02 00:30N 29°45' W 095°06'0 0.0
2017-Dec-02 00:00N 29°45' W 095°06'0 0.0
2017-Dec-01 23:09N 29°45' W 095°06'0 0.0
2017-Dec-01 14:03N 29°45' W 095°06'0 0.0
2017-Dec-01 11:33N 29°45' W 095°06'0 0.0
2017-Dec-01 11:18N 29°45' W 095°06'0 0.0
2017-Dec-01 10:48N 29°45' W 095°06'0 0.0
2017-Dec-01 10:27N 29°45' W 095°06'0 0.0
2017-Dec-01 09:54N 29°45' W 095°06'0 0.0
2017-Dec-01 09:27N 29°45' W 095°06'0 0.0
2017-Dec-01 08:57N 29°45' W 095°06'0 0.0
2017-Dec-01 08:30N 29°45' W 095°06'0 0.0
2017-Dec-01 07:54N 29°45' W 095°06'0 0.0
2017-Dec-01 07:30N 29°45' W 095°06'0 0.0
2017-Dec-01 07:00N 29°45' W 095°06'0 0.0
2017-Dec-01 06:27N 29°45' W 095°06'0 0.0
2017-Dec-01 06:00N 29°45' W 095°06'0 0.0
2017-Dec-01 05:24N 29°45' W 095°06'0 0.0
2017-Dec-01 05:00N 29°45' W 095°06'0 0.0
2017-Dec-01 04:24N 29°45' W 095°06'0 0.0
2017-Dec-01 04:00N 29°45' W 095°06'0 0.0
2017-Dec-01 03:21N 29°45' W 095°06'0 0.0
2017-Dec-01 03:00N 29°45' W 095°06'0 0.0
2017-Dec-01 02:27N 29°45' W 095°06'0 0.0
2017-Dec-01 01:57N 29°45' W 095°06'0 0.0
2017-Dec-01 01:24N 29°45' W 095°06'0 0.0
2017-Dec-01 00:57N 29°45' W 095°06'0 0.0
2017-Dec-01 00:27N 29°45' W 095°06'0 0.0
2017-Nov-30 20:57N 29°45' W 095°06'1 2.2
2017-Nov-30 20:29N 29°46' W 095°05'3 6.1
2017-Nov-30 20:00N 29°44' W 095°02'3 5.9
2017-Nov-30 19:30N 29°42' W 094°60'4 7.5
2017-Nov-30 19:00N 29°38' W 094°58'5 9.1
2017-Nov-30 18:30N 29°34' W 094°56'5 9.3
2017-Nov-30 18:00N 29°31' W 094°53'5 9.3
2017-Nov-30 17:30N 29°26' W 094°50'5 9.1
2017-Nov-30 16:59N 29°22' W 094°48'  
Track history (hours):
 
Tides and Currents Weather Stations Pressure Air Temp Water Temp Dewpoint Dewpoint Depression Visibility Wind Speed Wind Dir Waves Ship Positions

Paramount Hamilton

Last reported at 2017-Dec-10 16:01 UTC. Time now 2017-Dec-12 22:00 UTC.
Position N 29°60' W 093°56'.

Length 249 m; draft 11 m.

Type: Ship (hazmat cat A). MMSI: 235076274.

Date/timePositionNaut miles runAvg speedWind from/ knotsBaromVisibWave heightAir tempDewpointWater temp
2017-Dec-10 16:01N 29°60' W 093°56'0 0.0
2017-Dec-10 15:49N 29°60' W 093°56'0 0.0
2017-Dec-10 15:28N 29°60' W 093°56'0 0.0
2017-Dec-10 14:58N 29°60' W 093°56'0 0.0
2017-Dec-10 14:28N 29°60' W 093°56'0 0.0
2017-Dec-10 13:55N 29°60' W 093°56'0 0.0
2017-Dec-10 13:28N 29°60' W 093°56'0 0.0
2017-Dec-10 12:58N 29°60' W 093°56'0 0.0
2017-Dec-10 12:28N 29°60' W 093°56'0 0.0
2017-Dec-10 11:58N 29°60' W 093°56'0 0.0
2017-Dec-10 11:28N 29°60' W 093°56'0 0.0
2017-Dec-10 10:46N 29°60' W 093°56'0 0.0
2017-Dec-10 10:25N 29°60' W 093°56'0 0.0
2017-Dec-10 08:01N 29°60' W 093°56'0 0.0
2017-Dec-10 07:49N 29°60' W 093°56'0 0.0
2017-Dec-10 07:25N 29°60' W 093°56'9 0.6
2017-Dec-09 15:55N 29°51' W 093°57'3 6.2
2017-Dec-09 15:22N 29°47' W 093°57'2 6.7
2017-Dec-09 15:00N 29°46' W 093°55'7 7.9
2017-Dec-09 14:09N 29°41' W 093°50'1 9.1
2017-Dec-09 14:00N 29°39' W 093°50'  
2017-Dec-03 08:58N 28°44' W 094°23'712.3
2017-Dec-03 08:25N 28°51' W 094°25'512.5
2017-Dec-03 08:00N 28°56' W 094°26'612.2
2017-Dec-03 07:30N 29°02' W 094°26'612.0
2017-Dec-03 07:00N 29°08' W 094°27'611.8
2017-Dec-03 06:30N 29°12' W 094°31'611.7
2017-Dec-03 06:00N 29°16' W 094°36'5 9.9
2017-Dec-03 05:30N 29°20' W 094°40'3 6.9
2017-Dec-03 05:00N 29°21' W 094°44'0 0.1
2017-Dec-03 04:30N 29°21' W 094°44'0 0.0
2017-Dec-03 03:57N 29°21' W 094°44'0 0.0
2017-Dec-03 03:30N 29°21' W 094°44'0 0.0
2017-Dec-03 03:00N 29°21' W 094°44'0 0.0
2017-Dec-03 00:51N 29°21' W 094°44'0 0.0
2017-Dec-02 18:45N 29°21' W 094°44'3 8.0
2017-Dec-02 18:24N 29°21' W 094°47'411.2
2017-Dec-02 18:00N 29°25' W 094°50'611.6
2017-Dec-02 17:30N 29°30' W 094°52'611.0
2017-Dec-02 17:00N 29°35' W 094°56'510.6
2017-Dec-02 16:30N 29°39' W 094°58'4 8.7
2017-Dec-02 16:00N 29°43' W 095°01'3 6.7
2017-Dec-02 15:30N 29°45' W 095°04'1 2.9
2017-Dec-02 15:00N 29°45' W 095°06'0 0.0
2017-Dec-02 14:30N 29°45' W 095°06'0 0.0
2017-Dec-02 14:00N 29°45' W 095°06'0 0.0
2017-Dec-02 13:30N 29°45' W 095°06'0 0.0
2017-Dec-02 13:00N 29°45' W 095°06'0 0.0
2017-Dec-02 12:30N 29°45' W 095°06'0 0.0
2017-Dec-02 12:00N 29°45' W 095°06'0 0.0
2017-Dec-02 11:30N 29°45' W 095°06'0 0.0
2017-Dec-02 10:54N 29°45' W 095°06'0 0.0
2017-Dec-02 10:27N 29°45' W 095°06'0 0.0
2017-Dec-02 10:00N 29°45' W 095°06'0 0.0
2017-Dec-02 09:24N 29°45' W 095°06'0 0.0
2017-Dec-02 09:00N 29°45' W 095°06'0 0.0
2017-Dec-02 08:27N 29°45' W 095°06'0 0.0
2017-Dec-02 08:00N 29°45' W 095°06'0 0.0
2017-Dec-02 07:24N 29°45' W 095°06'0 0.0
2017-Dec-02 07:00N 29°45' W 095°06'0 0.0
2017-Dec-02 06:30N 29°45' W 095°06'0 0.0
2017-Dec-02 06:00N 29°45' W 095°06'0 0.0
2017-Dec-02 05:24N 29°45' W 095°06'0 0.0
2017-Dec-02 05:00N 29°45' W 095°06'0 0.0
2017-Dec-02 04:30N 29°45' W 095°06'0 0.0
2017-Dec-02 04:00N 29°45' W 095°06'0 0.0
2017-Dec-02 03:27N 29°45' W 095°06'0 0.0
2017-Dec-02 02:54N 29°45' W 095°06'0 0.0
2017-Dec-02 02:12N 29°45' W 095°06'0 0.1
2017-Dec-02 02:00N 29°45' W 095°06'0 0.0
2017-Dec-02 01:30N 29°45' W 095°06'0 0.0
2017-Dec-02 01:00N 29°45' W 095°06'0 0.0
2017-Dec-02 00:30N 29°45' W 095°06'0 0.0
2017-Dec-02 00:00N 29°45' W 095°06'0 0.0
2017-Dec-01 23:09N 29°45' W 095°06'0 0.0
2017-Dec-01 14:03N 29°45' W 095°06'0 0.0
2017-Dec-01 11:33N 29°45' W 095°06'0 0.0
2017-Dec-01 11:18N 29°45' W 095°06'0 0.0
2017-Dec-01 10:48N 29°45' W 095°06'0 0.0
2017-Dec-01 10:27N 29°45' W 095°06'0 0.0
2017-Dec-01 09:54N 29°45' W 095°06'0 0.0
2017-Dec-01 09:27N 29°45' W 095°06'0 0.0
2017-Dec-01 08:57N 29°45' W 095°06'0 0.0
2017-Dec-01 08:30N 29°45' W 095°06'0 0.0
2017-Dec-01 07:54N 29°45' W 095°06'0 0.0
2017-Dec-01 07:30N 29°45' W 095°06'0 0.0
2017-Dec-01 07:00N 29°45' W 095°06'0 0.0
2017-Dec-01 06:27N 29°45' W 095°06'0 0.0
2017-Dec-01 06:00N 29°45' W 095°06'0 0.0
2017-Dec-01 05:24N 29°45' W 095°06'0 0.0
2017-Dec-01 05:00N 29°45' W 095°06'0 0.0
2017-Dec-01 04:24N 29°45' W 095°06'0 0.0
2017-Dec-01 04:00N 29°45' W 095°06'0 0.0
2017-Dec-01 03:21N 29°45' W 095°06'0 0.0
2017-Dec-01 03:00N 29°45' W 095°06'0 0.0
2017-Dec-01 02:27N 29°45' W 095°06'0 0.0
2017-Dec-01 01:57N 29°45' W 095°06'0 0.0
2017-Dec-01 01:24N 29°45' W 095°06'0 0.0
2017-Dec-01 00:57N 29°45' W 095°06'0 0.0
2017-Dec-01 00:27N 29°45' W 095°06'0 0.0
2017-Nov-30 20:57N 29°45' W 095°06'1 2.2
2017-Nov-30 20:29N 29°46' W 095°05'3 6.1
2017-Nov-30 20:00N 29°44' W 095°02'3 5.9
2017-Nov-30 19:30N 29°42' W 094°60'4 7.5
2017-Nov-30 19:00N 29°38' W 094°58'5 9.1
2017-Nov-30 18:30N 29°34' W 094°56'5 9.3
2017-Nov-30 18:00N 29°31' W 094°53'5 9.3
2017-Nov-30 17:30N 29°26' W 094°50'5 9.1
2017-Nov-30 16:59N 29°22' W 094°48'  

Dump ship's entire track history